Time;durP1;ratioP1;P1;durP2;ratioP2;P2;SDS_P1;SDS_P2;PMS_P1;PMS_P2;Temp;Humidity;BMP_temperature;BMP_pressure;BME280_temperature;BME280_humidity;BME280_pressure;Samples;Min_cycle;Max_cycle;Signal;HPM_P1;HPM_P2
2021/06/25 00:01:27;;;;;;;;;21.50;20.25;;;;;20.37;42.96;101026.69;5054774;28;47193;-76
2021/06/25 00:03:53;;;;;;;;;19.75;19.75;;;;;20.36;42.73;101022.34;5076638;27;45973;-77
2021/06/25 00:06:18;;;;;;;;;23.25;20.75;;;;;20.33;43.28;101017.22;5090768;27;45563;-77
2021/06/25 00:08:44;;;;;;;;;19.25;17.50;;;;;20.32;42.82;101015.50;5073953;28;45453;-77
2021/06/25 00:11:09;;;;;;;;;25.25;19.50;;;;;20.31;43.26;101012.00;5072984;28;45723;-77
2021/06/25 00:13:34;;;;;;;;;29.75;23.00;;;;;20.30;43.10;101020.06;5055500;28;50045;-76
2021/06/25 00:16:01;;;;;;;;;20.75;18.50;;;;;20.29;43.01;101013.03;5074726;28;45420;-80
2021/06/25 00:18:27;;;;;;;;;21.25;19.75;;;;;20.27;42.90;101018.44;5075776;28;45351;-78
2021/06/25 00:20:52;;;;;;;;;16.25;13.00;;;;;20.26;43.28;101016.72;5060371;28;46974;-78
2021/06/25 00:23:18;;;;;;;;;21.25;18.50;;;;;20.25;43.28;101017.66;5066328;28;45461;-77
2021/06/25 00:25:43;;;;;;;;;19.00;16.75;;;;;20.24;43.02;101004.50;5078484;28;46164;-80
2021/06/25 00:28:09;;;;;;;;;22.25;17.75;;;;;20.23;43.47;101008.94;5076230;28;45541;-76
2021/06/25 00:30:34;;;;;;;;;22.50;20.50;;;;;20.20;43.56;101006.47;5076522;28;47507;-79
2021/06/25 00:32:59;;;;;;;;;22.50;18.50;;;;;20.19;43.29;101010.09;5044982;28;46044;-77
2021/06/25 00:35:25;;;;;;;;;20.00;20.00;;;;;20.20;43.22;101008.28;5076710;27;45369;-77
2021/06/25 00:37:50;;;;;;;;;19.00;19.00;;;;;20.18;43.27;101016.31;5059968;28;45318;-79
2021/06/25 00:40:16;;;;;;;;;19.00;17.50;;;;;20.16;43.18;101010.22;5075457;28;65674;-79
2021/06/25 00:42:41;;;;;;;;;20.00;19.50;;;;;20.15;43.33;101001.41;5065844;28;45694;-79
2021/06/25 00:45:14;;;;;;;;;21.50;19.25;;;;;20.14;43.62;101005.00;5060077;28;45499;-79
2021/06/25 00:47:42;;;;;;;;;22.50;21.00;;;;;20.13;43.40;101003.31;5078493;27;45846;-77
2021/06/25 00:50:08;;;;;;;;;24.50;21.75;;;;;20.11;43.74;100999.91;5076039;28;46272;-77
2021/06/25 00:52:33;;;;;;;;;19.25;18.25;;;;;20.11;43.31;100997.25;5081219;27;45676;-78
2021/06/25 00:54:59;;;;;;;;;23.00;20.75;;;;;20.10;43.72;100997.34;5076652;28;45378;-79
2021/06/25 00:57:24;;;;;;;;;23.75;22.25;;;;;20.09;43.85;100990.31;5043354;28;45416;-78
2021/06/25 00:59:50;;;;;;;;;21.25;19.25;;;;;20.08;43.64;100985.97;5077678;28;45369;-76
2021/06/25 01:02:15;;;;;;;;;25.50;22.75;;;;;20.06;43.67;100975.44;5077397;28;53353;-77
2021/06/25 01:04:40;;;;;;;;;22.75;21.75;;;;;20.06;43.55;100987.84;5062878;28;45867;-84
2021/06/25 01:07:06;;;;;;;;;22.50;22.50;;;;;20.04;43.72;100979.13;5071809;28;45520;-82
2021/06/25 01:09:32;;;;;;;;;21.25;18.25;;;;;20.01;43.79;100976.66;5081853;27;46203;-82
2021/06/25 01:11:58;;;;;;;;;23.25;20.00;;;;;20.02;43.70;100968.63;5067607;28;45617;-80
2021/06/25 01:14:23;;;;;;;;;22.75;21.25;;;;;20.00;43.95;100974.97;5081617;28;45534;-81
2021/06/25 01:16:48;;;;;;;;;24.50;20.75;;;;;19.99;44.09;100966.16;5053491;28;45339;-80
2021/06/25 01:19:14;;;;;;;;;23.50;22.50;;;;;19.98;44.22;100974.19;5079719;28;52068;-85
2021/06/25 01:21:43;;;;;;;;;26.00;23.75;;;;;19.96;43.70;100965.47;5065986;28;45318;-80
2021/06/25 01:24:08;;;;;;;;;26.75;22.50;;;;;19.95;44.00;100969.03;5080095;28;45338;-84
2021/06/25 01:26:34;;;;;;;;;25.50;23.75;;;;;19.96;43.88;100970.78;5066208;28;45658;-79
2021/06/25 01:28:59;;;;;;;;;23.75;22.50;;;;;19.95;43.93;100972.53;5076439;28;62768;-81
2021/06/25 01:31:25;;;;;;;;;22.00;21.00;;;;;19.93;44.16;100962.97;5065289;28;45841;-83
2021/06/25 01:33:50;;;;;;;;;24.00;22.75;;;;;19.92;44.02;100961.25;5093490;27;45395;-82
2021/06/25 01:36:16;;;;;;;;;22.50;19.50;;;;;19.91;44.45;100965.72;5078232;28;45543;-83
2021/06/25 01:38:41;;;;;;;;;26.75;24.00;;;;;19.90;44.43;100960.50;5076407;28;46202;-78
2021/06/25 01:41:07;;;;;;;;;22.50;22.50;;;;;19.88;44.57;100963.25;5067956;28;45401;-80
2021/06/25 01:43:32;;;;;;;;;26.50;23.25;;;;;19.88;44.47;100957.09;5077616;28;45799;-81
2021/06/25 01:45:58;;;;;;;;;24.75;24.25;;;;;19.86;44.42;100951.03;5075529;28;45437;-80
2021/06/25 01:48:23;;;;;;;;;26.50;24.25;;;;;19.87;44.17;100960.69;5058660;28;46954;-77
2021/06/25 01:50:49;;;;;;;;;25.50;20.50;;;;;19.84;44.68;100954.63;5060542;27;45322;-81
2021/06/25 01:53:16;;;;;;;;;26.50;24.25;;;;;19.84;44.24;100957.28;5076769;27;45350;-80
2021/06/25 01:55:42;;;;;;;;;24.75;21.50;;;;;19.83;44.90;100954.72;5074127;27;45568;-77
2021/06/25 01:58:11;;;;;;;;;23.00;21.00;;;;;19.82;44.33;100947.69;5076018;28;46387;-79
2021/06/25 02:00:37;;;;;;;;;22.00;22.00;;;;;19.79;44.89;100939.94;5050387;28;45404;-80
2021/06/25 02:03:02;;;;;;;;;22.75;20.50;;;;;19.79;44.64;100947.88;5078696;28;45404;-81
2021/06/25 02:05:28;;;;;;;;;24.75;23.25;;;;;19.79;44.87;100940.78;5069944;28;45409;-80
2021/06/25 02:07:53;;;;;;;;;29.25;23.25;;;;;19.78;45.04;100938.22;5077451;28;45974;-81
2021/06/25 02:10:19;;;;;;;;;22.00;20.75;;;;;19.76;44.91;100934.81;5068499;27;45441;-82
2021/06/25 02:12:44;;;;;;;;;24.75;23.75;;;;;19.76;44.92;100925.06;5076375;28;45407;-83
2021/06/25 02:15:10;;;;;;;;;26.00;22.75;;;;;19.73;45.07;100927.84;5068574;28;45476;-83
2021/06/25 02:17:36;;;;;;;;;26.25;23.00;;;;;19.73;44.87;100927.84;5076589;28;46541;-77
2021/06/25 02:20:02;;;;;;;;;22.25;20.50;;;;;19.72;44.86;100918.19;5051454;28;45550;-79
2021/06/25 02:22:28;;;;;;;;;27.25;23.00;;;;;19.71;45.13;100921.78;5072378;28;45570;-77
2021/06/25 02:24:53;;;;;;;;;22.75;20.50;;;;;19.73;45.04;100919.06;5073696;28;45781;-78
2021/06/25 02:27:18;;;;;;;;;20.50;19.25;;;;;19.71;44.80;100924.44;5081426;27;47888;-77
2021/06/25 02:29:44;;;;;;;;;21.75;21.50;;;;;19.69;45.33;100913.09;5076418;28;49141;-83
2021/06/25 02:32:10;;;;;;;;;23.75;21.50;;;;;19.69;45.24;100915.72;5063428;28;45479;-79
2021/06/25 02:34:35;;;;;;;;;26.25;23.75;;;;;19.67;44.89;100909.66;5076335;28;45679;-77
2021/06/25 02:37:01;;;;;;;;;22.75;21.25;;;;;19.66;45.43;100905.31;5064146;27;46423;-77
2021/06/25 02:39:26;;;;;;;;;20.00;20.00;;;;;19.67;45.05;100906.16;5074931;28;45414;-82
2021/06/25 02:41:52;;;;;;;;;22.50;20.25;;;;;19.66;45.46;100907.09;5062239;28;45536;-77
2021/06/25 02:44:17;;;;;;;;;24.00;20.00;;;;;19.65;45.19;100900.97;5094872;27;45603;-77
2021/06/25 02:46:42;;;;;;;;;28.00;23.50;;;;;19.64;45.34;100899.25;5061661;28;52836;-82
2021/06/25 02:49:08;;;;;;;;;25.00;23.00;;;;;19.62;45.15;100900.28;5094241;27;45399;-79
2021/06/25 02:51:33;;;;;;;;;23.25;22.50;;;;;19.62;45.29;100901.13;5076452;28;45353;-80
2021/06/25 02:53:59;;;;;;;;;29.25;19.50;;;;;19.61;45.41;100896.78;5060316;28;45583;-80
2021/06/25 02:56:24;;;;;;;;;25.50;22.50;;;;;19.61;45.10;100902.09;5049599;28;45369;-79
2021/06/25 02:58:50;;;;;;;;;25.25;24.25;;;;;19.60;45.49;100908.31;5091965;27;45431;-81
2021/06/25 03:01:15;;;;;;;;;26.75;23.00;;;;;19.60;45.53;100907.47;5068002;28;45519;-79
2021/06/25 03:03:41;;;;;;;;;27.00;23.75;;;;;19.57;45.75;100905.00;5092232;27;45377;-77
2021/06/25 03:06:06;;;;;;;;;28.50;26.00;;;;;19.56;45.11;100900.63;5061160;28;46059;-77
2021/06/25 03:08:32;;;;;;;;;27.00;22.50;;;;;19.55;45.57;100907.75;5075924;28;45352;-78
2021/06/25 03:10:57;;;;;;;;;29.25;25.25;;;;;19.53;45.43;100899.00;5063898;28;45435;-78
2021/06/25 03:13:23;;;;;;;;;26.50;22.50;;;;;19.51;45.59;100904.34;5074780;28;45323;-77
2021/06/25 03:15:48;;;;;;;;;24.25;23.50;;;;;19.48;45.74;100896.56;5066234;28;45685;-80
2021/06/25 03:18:14;;;;;;;;;23.50;22.25;;;;;19.44;45.88;100888.91;5074942;27;45451;-81
2021/06/25 03:20:40;;;;;;;;;24.75;21.50;;;;;19.47;45.59;100900.16;5057660;28;45558;-78
2021/06/25 03:23:05;;;;;;;;;25.75;23.75;;;;;19.43;45.51;100901.28;5091479;27;45365;-77
2021/06/25 03:25:31;;;;;;;;;23.50;23.50;;;;;19.44;45.88;100899.50;5067815;27;45413;-77
2021/06/25 03:27:57;;;;;;;;;28.25;22.75;;;;;19.41;45.87;100897.03;5075374;27;45365;-78
2021/06/25 03:30:23;;;;;;;;;28.75;24.00;;;;;19.38;45.66;100899.84;5028428;28;45635;-77
2021/06/25 03:32:48;;;;;;;;;28.50;25.50;;;;;19.34;45.69;100893.88;5075924;28;45707;-76
2021/06/25 03:35:13;;;;;;;;;27.75;25.50;;;;;19.35;45.95;100892.09;5065490;28;59810;-77
2021/06/25 03:37:39;;;;;;;;;25.75;20.50;;;;;19.34;45.96;100903.63;5056465;28;51917;-78
2021/06/25 03:40:09;;;;;;;;;25.25;22.75;;;;;19.33;45.82;100896.63;5061718;28;45588;-77
2021/06/25 03:42:35;;;;;;;;;22.25;21.00;;;;;19.30;45.93;100900.25;5074502;27;45439;-76
2021/06/25 03:45:00;;;;;;;;;30.25;27.00;;;;;19.30;45.87;100908.19;5081973;27;46658;-78
2021/06/25 03:47:26;;;;;;;;;25.50;24.75;;;;;19.26;46.11;100903.16;5056002;28;45988;-79
2021/06/25 03:49:51;;;;;;;;;24.25;23.50;;;;;19.24;46.00;100912.06;5075213;28;45458;-79
2021/06/25 03:52:16;;;;;;;;;27.50;26.00;;;;;19.22;45.97;100902.50;5077735;27;45682;-77
2021/06/25 03:54:43;;;;;;;;;27.25;24.25;;;;;19.21;46.43;100909.56;5065160;28;45400;-77
2021/06/25 03:57:08;;;;;;;;;26.25;24.25;;;;;19.20;46.14;100901.72;5076571;28;45644;-76
2021/06/25 03:59:34;;;;;;;;;24.25;23.75;;;;;19.19;46.54;100900.88;5065238;28;53876;-79
2021/06/25 04:01:59;;;;;;;;;22.75;22.00;;;;;19.16;46.22;100892.25;5090164;27;45373;-82
2021/06/25 04:04:25;;;;;;;;;33.25;29.00;;;;;19.17;46.27;100899.25;5064161;27;46220;-81
2021/06/25 04:06:50;;;;;;;;;24.50;22.50;;;;;19.14;46.42;100887.03;5075451;28;45437;-76
2021/06/25 04:09:15;;;;;;;;;24.25;21.00;;;;;19.14;46.62;100892.34;5050346;28;45779;-76
2021/06/25 04:11:41;;;;;;;;;28.75;27.50;;;;;19.13;46.74;100890.63;5075804;28;45336;-75
2021/06/25 04:14:06;;;;;;;;;30.00;24.75;;;;;19.12;46.75;100888.06;5056747;28;47212;-78
2021/06/25 04:16:32;;;;;;;;;27.75;26.75;;;;;19.09;46.80;100883.81;5055814;28;48075;-76
2021/06/25 04:18:58;;;;;;;;;19.50;19.50;;;;;19.10;47.10;100885.50;5076271;28;45486;-80
2021/06/25 04:21:24;;;;;;;;;25.25;23.00;;;;;19.09;47.01;100889.09;5077456;28;45551;-79
2021/06/25 04:23:49;;;;;;;;;27.50;25.50;;;;;19.08;47.09;100884.72;5073768;28;46205;-80
2021/06/25 04:26:15;;;;;;;;;30.25;23.25;;;;;19.08;46.73;100895.28;5074291;27;45568;-81
2021/06/25 04:28:41;;;;;;;;;29.75;27.50;;;;;19.08;47.17;100889.16;5074145;27;58699;-83
2021/06/25 04:31:06;;;;;;;;;27.50;24.75;;;;;19.06;46.97;100893.69;5075901;28;45596;-83
2021/06/25 04:33:32;;;;;;;;;23.50;22.25;;;;;19.07;46.96;100896.25;5073430;27;46177;-81
2021/06/25 04:35:58;;;;;;;;;21.75;20.50;;;;;19.09;47.25;100896.19;5067056;27;45517;-81
2021/06/25 04:38:24;;;;;;;;;22.75;19.50;;;;;19.08;47.20;100894.44;5072991;28;45366;-78
2021/06/25 04:40:49;;;;;;;;;23.75;23.75;;;;;19.07;47.43;100898.88;5076504;27;45407;-80
2021/06/25 04:43:15;;;;;;;;;26.25;24.50;;;;;19.07;47.34;100892.72;5077633;28;45421;-84
2021/06/25 04:45:41;;;;;;;;;26.00;23.75;;;;;19.08;47.22;100889.16;5077959;28;45432;-79
2021/06/25 04:48:08;;;;;;;;;25.00;24.25;;;;;19.07;47.30;100898.88;5073588;28;45404;-77
2021/06/25 04:50:34;;;;;;;;;23.75;22.00;;;;;19.08;47.49;100903.25;5057440;28;45699;-78
2021/06/25 04:52:59;;;;;;;;;27.75;23.50;;;;;19.07;47.58;100895.38;5069031;28;47045;-78
2021/06/25 04:55:25;;;;;;;;;26.50;22.25;;;;;19.08;47.26;100895.28;5063601;27;45397;-79
2021/06/25 04:57:51;;;;;;;;;32.25;26.25;;;;;19.09;47.69;100891.75;5075045;27;45773;-76
2021/06/25 05:00:18;;;;;;;;;30.50;27.00;;;;;19.08;47.45;100892.66;5069510;28;45577;-81
2021/06/25 05:02:43;;;;;;;;;29.00;27.50;;;;;19.01;48.87;100895.72;5071644;27;47291;-72
2021/06/25 05:05:09;;;;;;;;;29.75;27.00;;;;;18.75;49.32;100892.72;5071470;28;45409;-72
2021/06/25 05:07:34;;;;;;;;;29.75;27.50;;;;;18.51;49.89;100891.34;5074321;28;45678;-76
2021/06/25 05:10:00;;;;;;;;;29.25;28.25;;;;;18.32;50.23;100894.09;5076680;27;45303;-73
2021/06/25 05:12:25;;;;;;;;;35.50;30.00;;;;;18.16;50.91;100888.72;5074965;27;46207;-71
2021/06/25 05:14:52;;;;;;;;;30.25;26.00;;;;;18.02;51.20;100897.38;5076200;28;45557;-73
2021/06/25 05:17:17;;;;;;;;;26.75;26.25;;;;;17.92;51.55;100889.97;5075207;28;45637;-72
2021/06/25 05:19:43;;;;;;;;;32.75;28.75;;;;;17.83;51.70;100895.72;5076022;28;45353;-78
2021/06/25 05:22:08;;;;;;;;;31.50;27.00;;;;;17.80;51.97;100895.88;5075225;28;45701;-78
2021/06/25 05:24:33;;;;;;;;;30.50;26.00;;;;;17.73;52.25;100899.75;5080019;27;52960;-77
2021/06/25 05:26:59;;;;;;;;;35.25;33.25;;;;;17.65;52.54;100900.09;5066166;28;46004;-75
2021/06/25 05:29:25;;;;;;;;;31.00;27.50;;;;;17.61;52.55;100894.09;5074257;28;45587;-71
2021/06/25 05:31:50;;;;;;;;;33.25;33.00;;;;;17.57;52.70;100899.63;5070543;28;50309;-76
2021/06/25 05:34:16;;;;;;;;;34.75;33.50;;;;;17.54;53.03;100897.09;5068957;27;45909;-73
2021/06/25 05:36:41;;;;;;;;;30.75;27.50;;;;;17.51;53.15;100902.53;5072713;28;45561;-72
2021/06/25 05:39:06;;;;;;;;;33.00;31.25;;;;;17.47;53.14;100901.84;5068621;27;45495;-72
2021/06/25 05:41:32;;;;;;;;;33.75;33.00;;;;;17.48;53.42;100898.25;5072483;27;47043;-76
2021/06/25 05:43:57;;;;;;;;;39.00;33.50;;;;;17.45;53.50;100895.78;5071269;28;45461;-78
2021/06/25 05:46:23;;;;;;;;;35.00;31.75;;;;;17.45;53.43;100897.56;5074459;28;45507;-76
2021/06/25 05:48:49;;;;;;;;;37.00;32.75;;;;;17.43;53.42;100902.91;5058029;28;45391;-73
2021/06/25 05:51:15;;;;;;;;;34.50;30.25;;;;;17.44;53.75;100903.78;5079288;27;47304;-75
2021/06/25 05:53:40;;;;;;;;;32.00;27.50;;;;;17.45;53.48;100905.47;5076438;28;50106;-74
2021/06/25 05:56:06;;;;;;;;;32.00;26.50;;;;;17.46;53.42;100901.91;5058653;28;45501;-72
2021/06/25 05:58:32;;;;;;;;;32.00;32.00;;;;;17.45;53.41;100908.13;5075180;27;45548;-72
2021/06/25 06:00:57;;;;;;;;;33.50;29.25;;;;;17.40;53.25;100909.19;5073920;27;46485;-75
2021/06/25 06:03:22;;;;;;;;;38.25;34.00;;;;;17.38;53.59;100903.16;5076889;27;48126;-76
2021/06/25 06:05:48;;;;;;;;;31.25;28.25;;;;;17.39;53.48;100909.28;5074058;28;45518;-76
2021/06/25 06:08:13;;;;;;;;;31.75;27.75;;;;;17.38;53.33;100911.06;5070412;28;45749;-76
2021/06/25 06:10:38;;;;;;;;;32.00;30.00;;;;;17.41;53.49;100907.41;5074561;28;47994;-78
2021/06/25 06:13:04;;;;;;;;;32.75;31.00;;;;;17.42;53.83;100912.63;5076322;28;45472;-78
2021/06/25 06:15:30;;;;;;;;;30.75;29.00;;;;;17.45;53.37;100913.41;5072461;28;45452;-76
2021/06/25 06:17:58;;;;;;;;;28.25;28.00;;;;;17.49;53.56;100909.69;5073644;27;45915;-75
2021/06/25 06:20:25;;;;;;;;;32.75;29.25;;;;;17.50;53.51;100904.31;5037047;28;46761;-76
2021/06/25 06:31:21;;;;;;;;;32.50;28.25;;;;;17.66;53.57;100896.53;5070225;28;45900;-74
2021/06/25 06:33:55;;;;;;;;;31.50;30.00;;;;;17.70;52.76;100892.81;5060020;28;45417;-73
2021/06/25 06:36:24;;;;;;;;;35.75;33.75;;;;;17.74;52.95;100896.16;5073864;28;45705;-73
2021/06/25 06:38:51;;;;;;;;;32.75;30.00;;;;;17.80;52.92;100895.88;5073205;28;45384;-74
2021/06/25 06:41:17;;;;;;;;;33.25;28.50;;;;;17.84;52.60;100882.44;5066019;28;45503;-72
2021/06/25 06:43:43;;;;;;;;;39.25;34.75;;;;;17.89;52.42;100882.19;5057046;28;45459;-73
2021/06/25 06:46:10;;;;;;;;;37.50;33.00;;;;;17.94;52.73;100893.38;5068449;27;45548;-74
2021/06/25 06:48:39;;;;;;;;;32.25;29.25;;;;;18.00;52.37;100888.66;5068280;28;45918;-71
2021/06/25 06:51:08;;;;;;;;;33.00;30.50;;;;;18.04;52.12;100892.00;5059590;28;46393;-73
2021/06/25 06:53:34;;;;;;;;;28.75;27.50;;;;;18.06;51.68;100892.78;5074567;28;45405;-72
2021/06/25 06:55:59;;;;;;;;;35.25;31.50;;;;;18.07;51.63;100891.84;5062173;27;45788;-74
2021/06/25 06:58:26;;;;;;;;;31.25;26.75;;;;;18.10;51.42;100888.19;5062691;28;45537;-75
2021/06/25 07:00:56;;;;;;;;;32.00;30.75;;;;;18.13;51.58;100886.25;5071579;27;46341;-75
2021/06/25 07:03:22;;;;;;;;;31.50;28.50;;;;;18.14;51.37;100889.72;5039372;28;45675;-76
2021/06/25 07:05:55;;;;;;;;;35.25;30.50;;;;;18.21;51.22;100891.13;5071927;28;45560;-72
2021/06/25 07:08:20;;;;;;;;;35.25;33.25;;;;;18.28;50.94;100888.09;5068728;28;45435;-76
2021/06/25 07:10:47;;;;;;;;;35.00;31.75;;;;;18.43;50.87;100894.38;5051735;28;46783;-74
2021/06/25 07:13:14;;;;;;;;;34.75;33.00;;;;;18.55;50.50;100896.38;5068589;28;45608;-74
2021/06/25 07:15:40;;;;;;;;;27.25;26.25;;;;;18.64;49.77;100892.41;5071305;27;45687;-73
2021/06/25 07:18:05;;;;;;;;;31.25;28.25;;;;;18.73;49.62;100891.09;5064808;28;45660;-74
2021/06/25 07:20:32;;;;;;;;;28.50;27.25;;;;;18.87;49.75;100888.56;5076509;28;46582;-77
2021/06/25 07:22:58;;;;;;;;;31.25;27.50;;;;;19.07;49.44;100887.44;5054295;28;45611;-72
2021/06/25 07:25:24;;;;;;;;;27.50;24.00;;;;;19.23;49.44;100889.16;5045683;28;45727;-70
2021/06/25 07:27:50;;;;;;;;;31.25;24.50;;;;;19.41;48.38;100892.56;5073368;28;45275;-73
2021/06/25 07:30:17;;;;;;;;;19.50;19.00;;;;;19.54;48.18;100882.19;5074423;27;47234;-73
2021/06/25 07:32:47;;;;;;;;;19.75;18.75;;;;;19.68;47.55;100879.56;5057409;27;45479;-76
2021/06/25 07:35:17;;;;;;;;;22.75;19.75;;;;;19.86;46.83;100877.66;5054842;28;45491;-74
2021/06/25 07:37:43;;;;;;;;;25.50;20.50;;;;;20.03;46.85;100874.88;5055227;28;45766;-76
2021/06/25 07:40:19;;;;;;;;;22.25;22.25;;;;;20.22;46.02;100874.63;5076704;27;45481;-73
2021/06/25 07:42:47;;;;;;;;;19.00;17.50;;;;;20.35;45.45;100864.97;5053819;28;45825;-73
2021/06/25 07:45:17;;;;;;;;;24.00;24.00;;;;;20.48;45.85;100865.13;5049674;28;45619;-74
2021/06/25 07:47:44;;;;;;;;;18.25;18.25;;;;;20.60;44.94;100861.69;5075711;27;45690;-74
2021/06/25 07:50:13;;;;;;;;;19.75;19.25;;;;;20.70;44.70;100865.50;5037290;28;47994;-75
2021/06/25 07:52:39;;;;;;;;;22.25;21.25;;;;;20.85;45.02;100865.50;5046726;28;45521;-73
2021/06/25 07:55:07;;;;;;;;;29.50;24.00;;;;;20.99;44.88;100863.66;5054473;28;45342;-77
2021/06/25 07:57:33;;;;;;;;;22.75;22.00;;;;;21.18;44.59;100855.38;5053339;28;45306;-74
2021/06/25 07:59:59;;;;;;;;;28.25;24.25;;;;;21.28;44.10;100860.97;5064104;28;46265;-77
2021/06/25 08:02:28;;;;;;;;;27.00;25.00;;;;;21.29;44.09;100858.22;5070655;28;45515;-73
2021/06/25 08:04:53;;;;;;;;;31.50;26.75;;;;;21.24;43.88;100860.31;5039114;28;45662;-72
2021/06/25 08:07:24;;;;;;;;;24.50;24.00;;;;;21.21;43.95;100856.97;5069551;27;45463;-72
2021/06/25 08:09:51;;;;;;;;;27.75;25.50;;;;;21.22;43.82;100848.03;5065379;27;46142;-75
2021/06/25 08:12:24;;;;;;;;;27.00;23.75;;;;;21.40;43.97;100841.56;5053898;28;45551;-74
2021/06/25 08:14:50;;;;;;;;;26.50;23.75;;;;;21.72;43.73;100847.44;5071558;28;45769;-78
2021/06/25 08:17:16;;;;;;;;;24.75;23.50;;;;;22.05;43.30;100846.13;5071841;28;45809;-76
2021/06/25 08:19:41;;;;;;;;;25.75;22.50;;;;;22.37;42.38;100852.75;5052342;28;46607;-72
2021/06/25 08:22:07;;;;;;;;;19.25;18.50;;;;;22.47;42.45;100851.13;5035411;28;45815;-74
2021/06/25 08:24:39;;;;;;;;;23.50;22.75;;;;;22.58;42.16;100845.06;5084062;27;45431;-73
2021/06/25 08:27:05;;;;;;;;;26.00;23.75;;;;;22.59;41.96;100840.59;5086507;27;45405;-75
2021/06/25 08:29:31;;;;;;;;;21.25;21.25;;;;;22.63;41.23;100840.25;5073950;27;46159;-73
2021/06/25 08:31:56;;;;;;;;;25.75;23.25;;;;;22.71;40.82;100845.88;5073611;28;45723;-72
2021/06/25 08:34:22;;;;;;;;;25.50;24.00;;;;;22.77;40.86;100845.47;5089423;27;45577;-75
2021/06/25 08:36:47;;;;;;;;;22.25;21.25;;;;;22.78;41.17;100846.31;5073573;27;45531;-76
2021/06/25 08:39:13;;;;;;;;;28.50;25.75;;;;;22.92;41.05;100830.22;5072604;28;53404;-78
2021/06/25 08:41:38;;;;;;;;;25.25;23.75;;;;;23.04;41.13;100833.81;5072344;28;45522;-72
2021/06/25 08:44:04;;;;;;;;;24.25;20.25;;;;;23.09;40.91;100829.00;5085573;27;45552;-72
2021/06/25 08:46:33;;;;;;;;;22.75;21.75;;;;;23.12;40.73;100831.44;5064505;27;45382;-72
2021/06/25 08:49:00;;;;;;;;;25.00;21.75;;;;;23.19;40.07;100808.69;5062938;27;45649;-71
2021/06/25 08:51:25;;;;;;;;;22.50;22.00;;;;;23.23;40.05;100820.84;5072911;27;45536;-73
2021/06/25 08:53:53;;;;;;;;;22.00;22.00;;;;;23.25;40.33;100818.91;5074612;27;46547;-72
2021/06/25 08:56:19;;;;;;;;;26.50;22.25;;;;;23.20;39.52;100813.03;5075760;27;45697;-73
2021/06/25 08:58:44;;;;;;;;;21.50;19.25;;;;;23.06;39.82;100824.75;5069261;27;45538;-73
2021/06/25 09:01:11;;;;;;;;;22.50;21.50;;;;;23.06;39.86;100821.22;5074577;27;45511;-74
2021/06/25 09:03:40;;;;;;;;;24.75;23.75;;;;;23.15;40.04;100821.38;5072731;27;45523;-72
2021/06/25 09:06:13;;;;;;;;;24.00;22.75;;;;;23.23;39.74;100812.84;5042299;28;45735;-73
2021/06/25 09:08:39;;;;;;;;;22.25;19.75;;;;;23.27;39.69;100816.97;5074627;27;47006;-73
2021/06/25 09:11:24;;;;;;;;;23.50;23.00;;;;;23.37;39.67;100807.31;5075208;27;45525;-74
2021/06/25 09:14:02;;;;;;;;;22.75;17.75;;;;;23.47;39.67;100815.50;5059460;27;45686;-75
2021/06/25 09:16:39;;;;;;;;;24.00;20.25;;;;;23.53;40.06;100807.03;5074247;27;45479;-74
2021/06/25 09:19:17;;;;;;;;;20.25;20.25;;;;;23.59;39.83;100801.25;5075255;27;45302;-73
2021/06/25 09:21:57;;;;;;;;;25.75;23.00;;;;;23.66;39.10;100807.00;5077049;28;45357;-73
2021/06/25 09:24:25;;;;;;;;;19.25;18.50;;;;;23.72;39.70;100804.72;5081345;27;45752;-73
2021/06/25 09:27:06;;;;;;;;;22.75;21.25;;;;;23.77;39.29;100801.69;5064191;27;44952;-74
2021/06/25 09:29:35;;;;;;;;;20.50;17.75;;;;;23.86;39.24;100798.34;5070521;28;45954;-78
2021/06/25 09:32:02;;;;;;;;;19.50;18.50;;;;;23.88;39.08;100792.88;5062702;28;45557;-75
2021/06/25 09:34:34;;;;;;;;;19.50;19.50;;;;;23.91;38.92;100787.31;5074383;28;45522;-72
2021/06/25 09:37:03;;;;;;;;;18.50;17.00;;;;;23.96;38.86;100790.47;5075926;27;45840;-75
2021/06/25 09:39:29;;;;;;;;;17.75;16.50;;;;;23.97;38.97;100792.16;5077723;27;45456;-73
2021/06/25 09:41:54;;;;;;;;;29.50;27.50;;;;;24.00;39.24;100792.75;5073539;27;48911;-75
2021/06/25 09:44:20;;;;;;;;;21.00;16.75;;;;;24.16;39.06;100787.09;5065787;28;45750;-73
2021/06/25 09:46:48;;;;;;;;;21.50;20.25;;;;;24.33;39.06;100783.97;5067266;28;45572;-73
2021/06/25 09:49:16;;;;;;;;;21.75;18.75;;;;;24.60;38.52;100788.09;5057779;28;45593;-78
2021/06/25 09:51:55;;;;;;;;;16.00;15.50;;;;;24.99;38.31;100776.03;5072960;28;45429;-73
2021/06/25 09:54:21;;;;;;;;;17.50;16.50;;;;;25.57;37.22;100780.03;5066246;27;45461;-74
2021/06/25 10:01:57;;;;;;;;;17.00;17.00;;;;;26.63;36.51;100773.63;5054331;28;45886;-75
2021/06/25 10:04:36;;;;;;;;;17.75;16.50;;;;;26.76;36.03;100780.44;5046089;28;45569;-74
2021/06/25 10:07:25;;;;;;;;;17.50;14.00;;;;;26.77;35.09;100779.44;5061807;27;45416;-76
2021/06/25 10:09:51;;;;;;;;;18.00;16.50;;;;;26.74;36.13;100779.72;5075280;27;46555;-75
2021/06/25 10:12:18;;;;;;;;;18.75;16.00;;;;;26.80;35.27;100772.97;5073033;28;45584;-73
2021/06/25 10:14:44;;;;;;;;;18.75;16.50;;;;;26.77;35.63;100775.91;5056711;28;45501;-72
2021/06/25 10:17:11;;;;;;;;;18.00;16.75;;;;;26.73;34.77;100775.34;5075256;27;45533;-74
2021/06/25 10:19:37;;;;;;;;;16.00;16.00;;;;;26.73;35.59;100771.81;5046125;28;46785;-73
2021/06/25 10:22:05;;;;;;;;;18.00;16.50;;;;;26.91;34.99;100783.56;5074629;27;45392;-74
2021/06/25 10:24:31;;;;;;;;;16.75;14.25;;;;;27.08;35.22;100769.50;5081783;27;45444;-73
2021/06/25 10:26:57;;;;;;;;;11.25;10.50;;;;;27.11;34.61;100765.69;5074032;28;45647;-76
2021/06/25 10:29:28;;;;;;;;;16.25;10.75;;;;;27.16;34.33;100759.94;5073879;27;46597;-74
2021/06/25 10:31:56;;;;;;;;;16.75;15.75;;;;;27.35;34.19;100760.78;5074272;28;45476;-73
2021/06/25 10:34:22;;;;;;;;;17.00;14.50;;;;;27.34;34.06;100758.25;5074593;27;45456;-73
2021/06/25 10:36:49;;;;;;;;;9.00;9.00;;;;;27.30;34.13;100757.66;5057665;27;45663;-72
2021/06/25 10:39:14;;;;;;;;;15.25;14.25;;;;;27.31;34.25;100759.34;5056434;28;45885;-71
2021/06/25 10:41:51;;;;;;;;;17.50;16.25;;;;;27.26;34.20;100755.41;5070883;28;45705;-71
2021/06/25 10:44:43;;;;;;;;;14.75;14.75;;;;;27.04;34.46;100746.63;5059145;28;45458;-72
2021/06/25 10:47:25;;;;;;;;;12.00;12.00;;;;;26.82;35.20;100759.41;5074670;28;45827;-75
2021/06/25 10:50:00;;;;;;;;;17.75;17.75;;;;;26.69;35.16;100757.00;5074846;28;45660;-73
2021/06/25 10:52:28;;;;;;;;;14.50;14.50;;;;;26.63;36.12;100754.84;5064535;28;45496;-73
2021/06/25 10:55:18;;;;;;;;;10.75;10.75;;;;;26.54;35.56;100751.19;5064692;28;45506;-71
2021/06/25 10:57:49;;;;;;;;;21.75;20.25;;;;;26.36;36.70;100748.28;5068885;27;45417;-72
2021/06/25 11:00:45;;;;;;;;;15.25;14.75;;;;;26.17;36.72;100750.84;5071884;27;46363;-77
2021/06/25 11:03:42;;;;;;;;;19.50;17.00;;;;;26.04;36.96;100752.94;5053846;27;45405;-70
2021/06/25 11:06:29;;;;;;;;;17.75;15.00;;;;;25.95;37.23;100741.16;5064713;27;45508;-71
2021/06/25 11:09:07;;;;;;;;;14.25;14.25;;;;;25.98;37.38;100742.72;5063055;27;45477;-72
2021/06/25 11:11:32;;;;;;;;;12.75;12.75;;;;;25.94;36.89;100743.97;5064498;27;46625;-72
2021/06/25 11:13:58;;;;;;;;;7.25;7.25;;;;;25.69;37.23;100746.09;5031505;28;45530;-73
2021/06/25 11:16:23;;;;;;;;;12.25;9.50;;;;;25.46;37.59;100747.16;5053000;28;45452;-72
2021/06/25 11:18:49;;;;;;;;;12.00;11.50;;;;;25.10;37.39;100756.44;5067138;28;45527;-70
2021/06/25 11:21:14;;;;;;;;;9.00;8.25;;;;;24.87;37.95;100750.28;5085901;27;45387;-71
2021/06/25 11:23:40;;;;;;;;;6.00;5.50;;;;;24.79;38.10;100748.25;5065669;27;45404;-72